sensor_id;sensor_type;location;lat;lon;timestamp;temperature;humidity
73137;DHT22;67767;45.636;11.756;2023-09-12T00:02:05;22.20;75.70
73137;DHT22;67767;45.636;11.756;2023-09-12T00:04:31;22.20;75.60
73137;DHT22;67767;45.636;11.756;2023-09-12T00:06:57;22.20;75.40
73137;DHT22;67767;45.636;11.756;2023-09-12T00:09:22;22.20;75.30
73137;DHT22;67767;45.636;11.756;2023-09-12T00:11:48;22.20;75.70
73137;DHT22;67767;45.636;11.756;2023-09-12T00:14:17;22.20;75.50
73137;DHT22;67767;45.636;11.756;2023-09-12T00:16:43;22.10;75.60
73137;DHT22;67767;45.636;11.756;2023-09-12T00:19:09;22.10;75.60
73137;DHT22;67767;45.636;11.756;2023-09-12T00:21:35;22.20;75.20
73137;DHT22;67767;45.636;11.756;2023-09-12T00:24:01;22.20;75.10
73137;DHT22;67767;45.636;11.756;2023-09-12T00:26:27;22.20;75.00
73137;DHT22;67767;45.636;11.756;2023-09-12T00:28:52;22.20;75.00
73137;DHT22;67767;45.636;11.756;2023-09-12T00:31:18;22.30;74.70
73137;DHT22;67767;45.636;11.756;2023-09-12T00:33:44;22.40;74.70
73137;DHT22;67767;45.636;11.756;2023-09-12T00:36:09;22.20;74.80
73137;DHT22;67767;45.636;11.756;2023-09-12T00:38:35;22.30;74.90
73137;DHT22;67767;45.636;11.756;2023-09-12T00:41:00;22.40;74.60
73137;DHT22;67767;45.636;11.756;2023-09-12T00:43:26;22.30;74.80
73137;DHT22;67767;45.636;11.756;2023-09-12T00:45:52;22.20;74.80
73137;DHT22;67767;45.636;11.756;2023-09-12T00:48:19;22.10;74.90
73137;DHT22;67767;45.636;11.756;2023-09-12T00:50:46;22.10;75.20
73137;DHT22;67767;45.636;11.756;2023-09-12T00:53:13;22.10;75.40
73137;DHT22;67767;45.636;11.756;2023-09-12T00:55:44;21.90;75.50
73137;DHT22;67767;45.636;11.756;2023-09-12T00:58:11;22.00;75.30
73137;DHT22;67767;45.636;11.756;2023-09-12T01:00:36;22.00;75.20
73137;DHT22;67767;45.636;11.756;2023-09-12T01:03:02;22.00;75.00
73137;DHT22;67767;45.636;11.756;2023-09-12T01:05:29;22.10;74.90
73137;DHT22;67767;45.636;11.756;2023-09-12T01:07:55;22.10;75.10
73137;DHT22;67767;45.636;11.756;2023-09-12T01:10:21;22.00;75.20
73137;DHT22;67767;45.636;11.756;2023-09-12T01:12:46;22.00;75.20
73137;DHT22;67767;45.636;11.756;2023-09-12T01:15:12;22.00;75.30
73137;DHT22;67767;45.636;11.756;2023-09-12T01:17:42;22.10;75.20
73137;DHT22;67767;45.636;11.756;2023-09-12T01:20:16;22.10;75.20
73137;DHT22;67767;45.636;11.756;2023-09-12T01:22:55;22.10;75.10
73137;DHT22;67767;45.636;11.756;2023-09-12T01:28:09;22.00;75.30
73137;DHT22;67767;45.636;11.756;2023-09-12T01:30:35;22.00;75.40
73137;DHT22;67767;45.636;11.756;2023-09-12T01:33:02;22.00;75.20
73137;DHT22;67767;45.636;11.756;2023-09-12T01:35:28;21.90;75.50
73137;DHT22;67767;45.636;11.756;2023-09-12T01:37:54;22.00;75.30
73137;DHT22;67767;45.636;11.756;2023-09-12T01:40:27;21.90;75.60
73137;DHT22;67767;45.636;11.756;2023-09-12T01:42:55;21.70;75.70
73137;DHT22;67767;45.636;11.756;2023-09-12T01:45:22;21.70;76.00
73137;DHT22;67767;45.636;11.756;2023-09-12T01:47:49;21.70;76.00
73137;DHT22;67767;45.636;11.756;2023-09-12T01:50:16;21.70;76.10
73137;DHT22;67767;45.636;11.756;2023-09-12T01:52:42;21.70;76.20
73137;DHT22;67767;45.636;11.756;2023-09-12T01:55:09;21.70;76.10
73137;DHT22;67767;45.636;11.756;2023-09-12T01:57:37;21.80;76.00
73137;DHT22;67767;45.636;11.756;2023-09-12T02:00:03;21.70;76.20
73137;DHT22;67767;45.636;11.756;2023-09-12T02:02:29;21.70;76.10
73137;DHT22;67767;45.636;11.756;2023-09-12T02:05:19;21.70;75.80
73137;DHT22;67767;45.636;11.756;2023-09-12T02:07:46;21.70;76.00
73137;DHT22;67767;45.636;11.756;2023-09-12T02:10:12;21.80;75.80
73137;DHT22;67767;45.636;11.756;2023-09-12T02:12:38;21.70;76.00
73137;DHT22;67767;45.636;11.756;2023-09-12T02:15:05;21.70;75.90
73137;DHT22;67767;45.636;11.756;2023-09-12T02:17:30;21.70;76.10
73137;DHT22;67767;45.636;11.756;2023-09-12T02:19:56;21.60;76.20
73137;DHT22;67767;45.636;11.756;2023-09-12T02:22:22;21.40;76.70
73137;DHT22;67767;45.636;11.756;2023-09-12T02:24:48;21.50;76.70
73137;DHT22;67767;45.636;11.756;2023-09-12T02:27:13;21.50;76.80
73137;DHT22;67767;45.636;11.756;2023-09-12T02:29:40;21.40;76.80
73137;DHT22;67767;45.636;11.756;2023-09-12T02:32:06;21.30;77.00
73137;DHT22;67767;45.636;11.756;2023-09-12T02:34:32;21.10;77.20
73137;DHT22;67767;45.636;11.756;2023-09-12T02:36:58;21.10;77.20
73137;DHT22;67767;45.636;11.756;2023-09-12T02:39:24;21.10;77.20
73137;DHT22;67767;45.636;11.756;2023-09-12T02:41:49;21.20;77.20
73137;DHT22;67767;45.636;11.756;2023-09-12T02:44:15;21.10;77.00
73137;DHT22;67767;45.636;11.756;2023-09-12T02:46:41;21.20;76.90
73137;DHT22;67767;45.636;11.756;2023-09-12T02:49:07;21.10;77.10
73137;DHT22;67767;45.636;11.756;2023-09-12T02:51:33;21.20;76.90
73137;DHT22;67767;45.636;11.756;2023-09-12T02:53:58;21.20;77.10
73137;DHT22;67767;45.636;11.756;2023-09-12T02:56:24;21.20;76.90
73137;DHT22;67767;45.636;11.756;2023-09-12T02:58:50;21.30;76.90
73137;DHT22;67767;45.636;11.756;2023-09-12T03:01:16;21.20;76.90
73137;DHT22;67767;45.636;11.756;2023-09-12T03:03:42;21.20;76.90
73137;DHT22;67767;45.636;11.756;2023-09-12T03:06:12;21.30;76.90
73137;DHT22;67767;45.636;11.756;2023-09-12T03:08:38;21.20;76.80
73137;DHT22;67767;45.636;11.756;2023-09-12T03:11:04;21.30;76.70
73137;DHT22;67767;45.636;11.756;2023-09-12T03:13:30;21.30;76.70
73137;DHT22;67767;45.636;11.756;2023-09-12T03:15:55;21.30;76.60
73137;DHT22;67767;45.636;11.756;2023-09-12T03:18:21;21.30;76.90
73137;DHT22;67767;45.636;11.756;2023-09-12T03:20:47;21.30;77.00
73137;DHT22;67767;45.636;11.756;2023-09-12T03:23:12;21.30;76.80
73137;DHT22;67767;45.636;11.756;2023-09-12T03:25:38;21.40;76.70
73137;DHT22;67767;45.636;11.756;2023-09-12T03:28:05;21.30;76.70
73137;DHT22;67767;45.636;11.756;2023-09-12T03:30:33;21.20;76.70
73137;DHT22;67767;45.636;11.756;2023-09-12T03:32:59;21.20;76.80
73137;DHT22;67767;45.636;11.756;2023-09-12T03:35:25;21.10;77.20
73137;DHT22;67767;45.636;11.756;2023-09-12T03:37:51;21.10;77.10
73137;DHT22;67767;45.636;11.756;2023-09-12T03:40:16;21.00;77.30
73137;DHT22;67767;45.636;11.756;2023-09-12T03:42:42;21.00;77.30
73137;DHT22;67767;45.636;11.756;2023-09-12T03:45:08;20.90;77.50
73137;DHT22;67767;45.636;11.756;2023-09-12T03:47:34;20.90;77.70
73137;DHT22;67767;45.636;11.756;2023-09-12T03:50:00;20.90;78.90
73137;DHT22;67767;45.636;11.756;2023-09-12T03:52:25;20.90;77.80
73137;DHT22;67767;45.636;11.756;2023-09-12T03:54:51;20.90;79.20
73137;DHT22;67767;45.636;11.756;2023-09-12T03:57:17;20.80;79.10
73137;DHT22;67767;45.636;11.756;2023-09-12T03:59:42;20.90;77.70
73137;DHT22;67767;45.636;11.756;2023-09-12T04:02:08;20.90;79.00
73137;DHT22;67767;45.636;11.756;2023-09-12T04:04:34;20.90;78.90
73137;DHT22;67767;45.636;11.756;2023-09-12T04:07:00;21.00;77.50
73137;DHT22;67767;45.636;11.756;2023-09-12T04:09:26;20.90;79.10
73137;DHT22;67767;45.636;11.756;2023-09-12T04:11:53;20.70;79.50
73137;DHT22;67767;45.636;11.756;2023-09-12T04:14:19;20.80;79.40
73137;DHT22;67767;45.636;11.756;2023-09-12T04:16:44;20.80;79.40
73137;DHT22;67767;45.636;11.756;2023-09-12T04:19:10;20.70;79.20
73137;DHT22;67767;45.636;11.756;2023-09-12T04:21:35;20.60;79.60
73137;DHT22;67767;45.636;11.756;2023-09-12T04:24:01;20.60;79.40
73137;DHT22;67767;45.636;11.756;2023-09-12T04:26:27;20.60;78.90
73137;DHT22;67767;45.636;11.756;2023-09-12T04:28:52;20.50;79.20
73137;DHT22;67767;45.636;11.756;2023-09-12T04:31:18;20.60;78.90
73137;DHT22;67767;45.636;11.756;2023-09-12T04:33:44;20.60;79.40
73137;DHT22;67767;45.636;11.756;2023-09-12T04:36:09;20.50;79.60
73137;DHT22;67767;45.636;11.756;2023-09-12T04:38:35;20.50;79.50
73137;DHT22;67767;45.636;11.756;2023-09-12T04:41:02;20.50;79.50
73137;DHT22;67767;45.636;11.756;2023-09-12T04:43:33;20.50;79.50
73137;DHT22;67767;45.636;11.756;2023-09-12T04:45:59;20.60;79.10
73137;DHT22;67767;45.636;11.756;2023-09-12T04:48:25;20.60;78.90
73137;DHT22;67767;45.636;11.756;2023-09-12T04:50:50;20.70;79.00
73137;DHT22;67767;45.636;11.756;2023-09-12T04:53:16;20.70;79.00
73137;DHT22;67767;45.636;11.756;2023-09-12T04:55:42;20.60;79.10
73137;DHT22;67767;45.636;11.756;2023-09-12T04:58:08;20.60;79.20
73137;DHT22;67767;45.636;11.756;2023-09-12T05:00:33;20.50;79.60
73137;DHT22;67767;45.636;11.756;2023-09-12T05:03:00;20.40;79.80
73137;DHT22;67767;45.636;11.756;2023-09-12T05:05:26;20.30;80.00
73137;DHT22;67767;45.636;11.756;2023-09-12T05:07:52;20.30;80.10
73137;DHT22;67767;45.636;11.756;2023-09-12T05:10:17;20.20;80.00
73137;DHT22;67767;45.636;11.756;2023-09-12T05:12:44;20.40;80.10
73137;DHT22;67767;45.636;11.756;2023-09-12T05:15:10;20.40;79.90
73137;DHT22;67767;45.636;11.756;2023-09-12T05:17:36;20.40;80.00
73137;DHT22;67767;45.636;11.756;2023-09-12T05:20:02;20.30;80.60
73137;DHT22;67767;45.636;11.756;2023-09-12T05:22:30;20.20;80.40
73137;DHT22;67767;45.636;11.756;2023-09-12T05:24:56;20.30;80.30
73137;DHT22;67767;45.636;11.756;2023-09-12T05:27:21;20.40;80.20
73137;DHT22;67767;45.636;11.756;2023-09-12T05:29:47;20.40;80.40
73137;DHT22;67767;45.636;11.756;2023-09-12T05:32:13;20.30;80.70
73137;DHT22;67767;45.636;11.756;2023-09-12T05:34:38;20.40;81.20
73137;DHT22;67767;45.636;11.756;2023-09-12T05:37:04;20.80;80.60
73137;DHT22;67767;45.636;11.756;2023-09-12T05:39:30;21.20;77.60
73137;DHT22;67767;45.636;11.756;2023-09-12T05:41:55;21.00;78.00
73137;DHT22;67767;45.636;11.756;2023-09-12T05:44:21;21.00;77.90
73137;DHT22;67767;45.636;11.756;2023-09-12T05:46:47;21.10;77.80
73137;DHT22;67767;45.636;11.756;2023-09-12T05:49:14;21.10;77.70
73137;DHT22;67767;45.636;11.756;2023-09-12T05:51:40;21.20;77.80
73137;DHT22;67767;45.636;11.756;2023-09-12T05:54:06;21.50;77.00
73137;DHT22;67767;45.636;11.756;2023-09-12T05:56:33;21.50;76.90
73137;DHT22;67767;45.636;11.756;2023-09-12T05:58:59;21.40;76.80
73137;DHT22;67767;45.636;11.756;2023-09-12T06:01:25;21.50;76.90
73137;DHT22;67767;45.636;11.756;2023-09-12T06:03:51;21.80;77.00
73137;DHT22;67767;45.636;11.756;2023-09-12T06:06:16;22.00;76.60
73137;DHT22;67767;45.636;11.756;2023-09-12T06:08:42;22.20;76.10
73137;DHT22;67767;45.636;11.756;2023-09-12T06:11:09;22.40;75.80
73137;DHT22;67767;45.636;11.756;2023-09-12T06:13:34;22.50;75.80
73137;DHT22;67767;45.636;11.756;2023-09-12T06:16:03;22.70;75.30
73137;DHT22;67767;45.636;11.756;2023-09-12T06:18:29;22.80;74.80
73137;DHT22;67767;45.636;11.756;2023-09-12T06:20:57;22.80;74.40
73137;DHT22;67767;45.636;11.756;2023-09-12T06:23:23;22.80;74.10
73137;DHT22;67767;45.636;11.756;2023-09-12T06:25:49;23.10;74.20
73137;DHT22;67767;45.636;11.756;2023-09-12T06:28:28;23.30;74.40
73137;DHT22;67767;45.636;11.756;2023-09-12T06:30:54;23.40;74.10
73137;DHT22;67767;45.636;11.756;2023-09-12T06:33:19;23.30;74.70
73137;DHT22;67767;45.636;11.756;2023-09-12T06:35:52;23.30;74.90
73137;DHT22;67767;45.636;11.756;2023-09-12T06:38:22;23.20;74.70
73137;DHT22;67767;45.636;11.756;2023-09-12T06:40:48;23.40;74.60
73137;DHT22;67767;45.636;11.756;2023-09-12T06:43:14;23.30;74.60
73137;DHT22;67767;45.636;11.756;2023-09-12T06:45:40;23.60;74.30
73137;DHT22;67767;45.636;11.756;2023-09-12T06:48:06;23.70;73.50
73137;DHT22;67767;45.636;11.756;2023-09-12T06:50:32;23.80;73.50
73137;DHT22;67767;45.636;11.756;2023-09-12T06:52:58;23.90;73.20
73137;DHT22;67767;45.636;11.756;2023-09-12T06:55:24;24.00;73.20
73137;DHT22;67767;45.636;11.756;2023-09-12T06:57:49;24.00;73.30
73137;DHT22;67767;45.636;11.756;2023-09-12T07:00:15;24.10;73.10
73137;DHT22;67767;45.636;11.756;2023-09-12T07:02:42;24.20;73.60
73137;DHT22;67767;45.636;11.756;2023-09-12T07:05:08;24.10;73.70
73137;DHT22;67767;45.636;11.756;2023-09-12T07:07:33;24.20;73.40
73137;DHT22;67767;45.636;11.756;2023-09-12T07:09:59;24.20;73.90
73137;DHT22;67767;45.636;11.756;2023-09-12T07:12:26;24.00;74.10
73137;DHT22;67767;45.636;11.756;2023-09-12T07:14:51;24.40;73.90
73137;DHT22;67767;45.636;11.756;2023-09-12T07:17:17;24.60;73.20
73137;DHT22;67767;45.636;11.756;2023-09-12T07:19:43;24.70;73.40
73137;DHT22;67767;45.636;11.756;2023-09-12T07:22:09;24.60;73.20
73137;DHT22;67767;45.636;11.756;2023-09-12T07:24:35;24.80;73.10
73137;DHT22;67767;45.636;11.756;2023-09-12T07:27:00;25.10;72.70
73137;DHT22;67767;45.636;11.756;2023-09-12T07:29:26;25.20;72.40
73137;DHT22;67767;45.636;11.756;2023-09-12T07:31:53;24.80;73.20
73137;DHT22;67767;45.636;11.756;2023-09-12T07:34:20;25.10;73.00
73137;DHT22;67767;45.636;11.756;2023-09-12T07:36:46;25.30;72.20
73137;DHT22;67767;45.636;11.756;2023-09-12T07:39:13;25.50;72.10
73137;DHT22;67767;45.636;11.756;2023-09-12T07:41:38;25.50;72.00
73137;DHT22;67767;45.636;11.756;2023-09-12T07:44:04;25.80;71.60
73137;DHT22;67767;45.636;11.756;2023-09-12T07:46:33;25.70;71.30
73137;DHT22;67767;45.636;11.756;2023-09-12T07:48:58;25.90;71.70
73137;DHT22;67767;45.636;11.756;2023-09-12T07:51:24;25.90;71.70
73137;DHT22;67767;45.636;11.756;2023-09-12T07:53:50;25.90;71.20
73137;DHT22;67767;45.636;11.756;2023-09-12T07:56:15;25.90;71.10
73137;DHT22;67767;45.636;11.756;2023-09-12T07:58:41;26.00;70.60
73137;DHT22;67767;45.636;11.756;2023-09-12T08:01:08;26.10;71.60
73137;DHT22;67767;45.636;11.756;2023-09-12T08:03:35;26.20;71.00
73137;DHT22;67767;45.636;11.756;2023-09-12T08:06:02;26.00;71.20
73137;DHT22;67767;45.636;11.756;2023-09-12T08:08:29;26.30;71.40
73137;DHT22;67767;45.636;11.756;2023-09-12T08:10:55;26.20;70.30
73137;DHT22;67767;45.636;11.756;2023-09-12T08:13:22;26.40;68.30
73137;DHT22;67767;45.636;11.756;2023-09-12T08:15:48;26.50;68.80
73137;DHT22;67767;45.636;11.756;2023-09-12T08:18:13;26.60;68.70
73137;DHT22;67767;45.636;11.756;2023-09-12T08:20:39;26.30;69.30
73137;DHT22;67767;45.636;11.756;2023-09-12T08:23:05;26.10;70.30
73137;DHT22;67767;45.636;11.756;2023-09-12T08:25:30;26.30;70.90
73137;DHT22;67767;45.636;11.756;2023-09-12T08:27:56;26.60;68.50
73137;DHT22;67767;45.636;11.756;2023-09-12T08:30:22;26.80;67.80
73137;DHT22;67767;45.636;11.756;2023-09-12T08:32:47;27.00;68.60
73137;DHT22;67767;45.636;11.756;2023-09-12T08:35:13;27.20;67.40
73137;DHT22;67767;45.636;11.756;2023-09-12T08:37:40;27.30;66.20
73137;DHT22;67767;45.636;11.756;2023-09-12T08:40:09;27.50;64.70
73137;DHT22;67767;45.636;11.756;2023-09-12T08:42:42;27.40;66.20
73137;DHT22;67767;45.636;11.756;2023-09-12T08:45:13;27.60;65.80
73137;DHT22;67767;45.636;11.756;2023-09-12T08:47:41;27.80;65.00
73137;DHT22;67767;45.636;11.756;2023-09-12T08:50:13;27.80;65.10
73137;DHT22;67767;45.636;11.756;2023-09-12T08:52:45;27.90;65.00
73137;DHT22;67767;45.636;11.756;2023-09-12T08:55:11;27.70;64.60
73137;DHT22;67767;45.636;11.756;2023-09-12T08:57:42;27.90;65.80
73137;DHT22;67767;45.636;11.756;2023-09-12T09:00:09;28.00;65.50
73137;DHT22;67767;45.636;11.756;2023-09-12T09:02:36;28.00;64.40
73137;DHT22;67767;45.636;11.756;2023-09-12T09:05:04;28.20;65.20
73137;DHT22;67767;45.636;11.756;2023-09-12T09:07:41;28.40;64.40
73137;DHT22;67767;45.636;11.756;2023-09-12T09:10:15;28.40;63.40
73137;DHT22;67767;45.636;11.756;2023-09-12T09:12:43;28.10;62.20
73137;DHT22;67767;45.636;11.756;2023-09-12T09:15:29;28.20;63.90
73137;DHT22;67767;45.636;11.756;2023-09-12T09:17:56;28.20;63.60
73137;DHT22;67767;45.636;11.756;2023-09-12T09:20:33;28.40;64.50
73137;DHT22;67767;45.636;11.756;2023-09-12T09:23:07;27.90;65.60
73137;DHT22;67767;45.636;11.756;2023-09-12T09:25:39;28.10;65.80
73137;DHT22;67767;45.636;11.756;2023-09-12T09:28:18;28.20;66.20
73137;DHT22;67767;45.636;11.756;2023-09-12T09:30:46;28.10;64.90
73137;DHT22;67767;45.636;11.756;2023-09-12T09:33:12;27.90;67.00
73137;DHT22;67767;45.636;11.756;2023-09-12T09:35:41;28.00;67.00
73137;DHT22;67767;45.636;11.756;2023-09-12T09:38:08;27.70;69.00
73137;DHT22;67767;45.636;11.756;2023-09-12T09:40:34;28.00;68.20
73137;DHT22;67767;45.636;11.756;2023-09-12T09:43:02;28.00;68.10
73137;DHT22;67767;45.636;11.756;2023-09-12T09:45:29;28.10;68.40
73137;DHT22;67767;45.636;11.756;2023-09-12T09:48:22;28.20;68.30
73137;DHT22;67767;45.636;11.756;2023-09-12T09:50:48;28.30;67.90
73137;DHT22;67767;45.636;11.756;2023-09-12T09:53:14;28.30;67.50
73137;DHT22;67767;45.636;11.756;2023-09-12T09:55:39;28.40;65.10
73137;DHT22;67767;45.636;11.756;2023-09-12T09:58:06;28.50;64.70
73137;DHT22;67767;45.636;11.756;2023-09-12T10:00:34;29.00;63.20
73137;DHT22;67767;45.636;11.756;2023-09-12T10:03:04;28.90;61.50
73137;DHT22;67767;45.636;11.756;2023-09-12T10:05:32;29.00;62.60
73137;DHT22;67767;45.636;11.756;2023-09-12T10:07:58;28.70;63.70
73137;DHT22;67767;45.636;11.756;2023-09-12T10:10:26;28.90;63.20
73137;DHT22;67767;45.636;11.756;2023-09-12T10:12:56;29.20;61.70
73137;DHT22;67767;45.636;11.756;2023-09-12T10:15:22;29.50;61.20
73137;DHT22;67767;45.636;11.756;2023-09-12T10:17:57;29.90;60.30
73137;DHT22;67767;45.636;11.756;2023-09-12T10:21:00;30.20;58.70
73137;DHT22;67767;45.636;11.756;2023-09-12T10:23:39;30.40;57.40
73137;DHT22;67767;45.636;11.756;2023-09-12T10:26:10;30.60;57.20
73137;DHT22;67767;45.636;11.756;2023-09-12T10:28:41;30.70;57.10
73137;DHT22;67767;45.636;11.756;2023-09-12T10:31:08;30.60;57.20
73137;DHT22;67767;45.636;11.756;2023-09-12T10:33:36;30.10;55.00
73137;DHT22;67767;45.636;11.756;2023-09-12T10:36:03;29.40;53.50
73137;DHT22;67767;45.636;11.756;2023-09-12T10:38:32;29.70;55.60
73137;DHT22;67767;45.636;11.756;2023-09-12T10:41:00;30.30;58.00
73137;DHT22;67767;45.636;11.756;2023-09-12T10:43:28;30.60;56.80
73137;DHT22;67767;45.636;11.756;2023-09-12T10:45:55;30.80;55.80
73137;DHT22;67767;45.636;11.756;2023-09-12T10:48:22;30.90;54.80
73137;DHT22;67767;45.636;11.756;2023-09-12T10:50:48;31.00;53.20
73137;DHT22;67767;45.636;11.756;2023-09-12T10:53:15;30.90;52.70
73137;DHT22;67767;45.636;11.756;2023-09-12T10:55:41;31.20;52.30
73137;DHT22;67767;45.636;11.756;2023-09-12T10:58:10;31.50;51.90
73137;DHT22;67767;45.636;11.756;2023-09-12T11:00:36;32.00;50.80
73137;DHT22;67767;45.636;11.756;2023-09-12T11:05:54;32.20;49.50
73137;DHT22;67767;45.636;11.756;2023-09-12T11:08:20;31.80;51.60
73137;DHT22;67767;45.636;11.756;2023-09-12T11:11:24;31.90;50.10
73137;DHT22;67767;45.636;11.756;2023-09-12T11:14:03;32.60;49.40
73137;DHT22;67767;45.636;11.756;2023-09-12T11:16:29;32.50;51.20
73137;DHT22;67767;45.636;11.756;2023-09-12T11:21:44;32.70;50.20
73137;DHT22;67767;45.636;11.756;2023-09-12T11:24:10;32.90;48.70
73137;DHT22;67767;45.636;11.756;2023-09-12T11:26:59;33.30;48.20
73137;DHT22;67767;45.636;11.756;2023-09-12T11:29:35;33.50;46.90
73137;DHT22;67767;45.636;11.756;2023-09-12T11:32:02;33.50;48.60
73137;DHT22;67767;45.636;11.756;2023-09-12T11:34:35;33.20;49.10
73137;DHT22;67767;45.636;11.756;2023-09-12T11:37:01;32.80;49.40
73137;DHT22;67767;45.636;11.756;2023-09-12T11:39:33;33.60;47.70
73137;DHT22;67767;45.636;11.756;2023-09-12T11:42:00;33.40;47.40
73137;DHT22;67767;45.636;11.756;2023-09-12T11:44:26;34.20;47.10
73137;DHT22;67767;45.636;11.756;2023-09-12T11:46:53;34.70;44.10
73137;DHT22;67767;45.636;11.756;2023-09-12T11:49:19;34.60;44.50
73137;DHT22;67767;45.636;11.756;2023-09-12T11:51:52;34.90;43.80
73137;DHT22;67767;45.636;11.756;2023-09-12T11:54:24;33.90;46.30
73137;DHT22;67767;45.636;11.756;2023-09-12T11:56:51;34.20;46.80
73137;DHT22;67767;45.636;11.756;2023-09-12T11:59:23;34.80;44.30
73137;DHT22;67767;45.636;11.756;2023-09-12T12:01:49;34.90;44.10
73137;DHT22;67767;45.636;11.756;2023-09-12T12:04:15;35.10;44.10
73137;DHT22;67767;45.636;11.756;2023-09-12T12:06:41;34.60;44.30
73137;DHT22;67767;45.636;11.756;2023-09-12T12:09:06;34.90;44.60
73137;DHT22;67767;45.636;11.756;2023-09-12T12:11:32;35.00;44.30
73137;DHT22;67767;45.636;11.756;2023-09-12T12:14:17;34.70;44.60
73137;DHT22;67767;45.636;11.756;2023-09-12T12:16:46;35.50;43.60
73137;DHT22;67767;45.636;11.756;2023-09-12T12:19:13;36.60;41.20
73137;DHT22;67767;45.636;11.756;2023-09-12T12:21:40;35.50;43.20
73137;DHT22;67767;45.636;11.756;2023-09-12T12:24:10;35.30;43.30
73137;DHT22;67767;45.636;11.756;2023-09-12T12:26:36;35.70;43.00
73137;DHT22;67767;45.636;11.756;2023-09-12T12:29:02;35.90;42.30
73137;DHT22;67767;45.636;11.756;2023-09-12T12:31:28;35.90;42.00
73137;DHT22;67767;45.636;11.756;2023-09-12T12:33:54;35.80;42.80
73137;DHT22;67767;45.636;11.756;2023-09-12T12:36:21;36.00;42.30
73137;DHT22;67767;45.636;11.756;2023-09-12T12:38:48;35.00;43.50
73137;DHT22;67767;45.636;11.756;2023-09-12T12:41:28;34.60;44.40
73137;DHT22;67767;45.636;11.756;2023-09-12T12:43:56;35.40;42.60
73137;DHT22;67767;45.636;11.756;2023-09-12T12:46:25;36.10;41.90
73137;DHT22;67767;45.636;11.756;2023-09-12T12:48:51;35.70;42.00
73137;DHT22;67767;45.636;11.756;2023-09-12T12:51:18;35.90;41.80
73137;DHT22;67767;45.636;11.756;2023-09-12T12:53:49;35.40;42.00
73137;DHT22;67767;45.636;11.756;2023-09-12T12:56:20;35.60;42.40
73137;DHT22;67767;45.636;11.756;2023-09-12T12:58:52;35.20;42.80
73137;DHT22;67767;45.636;11.756;2023-09-12T13:01:18;35.50;43.20
73137;DHT22;67767;45.636;11.756;2023-09-12T13:03:45;35.80;42.70
73137;DHT22;67767;45.636;11.756;2023-09-12T13:06:11;36.10;42.00
73137;DHT22;67767;45.636;11.756;2023-09-12T13:08:44;36.30;40.50
73137;DHT22;67767;45.636;11.756;2023-09-12T13:11:11;36.50;40.70
73137;DHT22;67767;45.636;11.756;2023-09-12T13:13:38;36.60;40.50
73137;DHT22;67767;45.636;11.756;2023-09-12T13:16:09;37.00;40.10
73137;DHT22;67767;45.636;11.756;2023-09-12T13:18:36;37.60;38.00
73137;DHT22;67767;45.636;11.756;2023-09-12T13:21:03;38.00;37.90
73137;DHT22;67767;45.636;11.756;2023-09-12T13:23:29;38.40;37.90
73137;DHT22;67767;45.636;11.756;2023-09-12T13:25:55;38.30;37.90
73137;DHT22;67767;45.636;11.756;2023-09-12T13:28:21;38.80;37.30
73137;DHT22;67767;45.636;11.756;2023-09-12T13:30:51;39.00;37.80
73137;DHT22;67767;45.636;11.756;2023-09-12T13:33:17;39.00;36.60
73137;DHT22;67767;45.636;11.756;2023-09-12T13:35:42;39.30;36.80
73137;DHT22;67767;45.636;11.756;2023-09-12T13:38:08;39.40;36.70
73137;DHT22;67767;45.636;11.756;2023-09-12T13:40:38;39.40;35.30
73137;DHT22;67767;45.636;11.756;2023-09-12T13:43:05;39.80;34.90
73137;DHT22;67767;45.636;11.756;2023-09-12T13:45:31;39.70;34.60
73137;DHT22;67767;45.636;11.756;2023-09-12T13:47:58;39.40;35.90
73137;DHT22;67767;45.636;11.756;2023-09-12T13:50:24;39.50;35.30
73137;DHT22;67767;45.636;11.756;2023-09-12T13:52:50;39.50;35.20
73137;DHT22;67767;45.636;11.756;2023-09-12T13:55:15;39.20;34.10
73137;DHT22;67767;45.636;11.756;2023-09-12T13:57:41;38.80;35.00
73137;DHT22;67767;45.636;11.756;2023-09-12T14:00:08;39.60;34.90
73137;DHT22;67767;45.636;11.756;2023-09-12T14:02:34;39.80;35.30
73137;DHT22;67767;45.636;11.756;2023-09-12T14:05:00;39.60;34.90
73137;DHT22;67767;45.636;11.756;2023-09-12T14:07:26;39.50;34.20
73137;DHT22;67767;45.636;11.756;2023-09-12T14:09:51;39.40;35.10
73137;DHT22;67767;45.636;11.756;2023-09-12T14:12:24;39.70;34.10
73137;DHT22;67767;45.636;11.756;2023-09-12T14:14:51;39.70;34.40
73137;DHT22;67767;45.636;11.756;2023-09-12T14:17:17;39.50;33.60
73137;DHT22;67767;45.636;11.756;2023-09-12T14:19:43;39.90;33.30
73137;DHT22;67767;45.636;11.756;2023-09-12T14:22:08;40.00;33.40
73137;DHT22;67767;45.636;11.756;2023-09-12T14:24:34;39.90;33.70
73137;DHT22;67767;45.636;11.756;2023-09-12T14:27:00;39.70;34.00
73137;DHT22;67767;45.636;11.756;2023-09-12T14:29:26;40.10;32.50
73137;DHT22;67767;45.636;11.756;2023-09-12T14:31:55;40.20;32.40
73137;DHT22;67767;45.636;11.756;2023-09-12T14:34:24;40.20;31.70
73137;DHT22;67767;45.636;11.756;2023-09-12T14:36:53;40.30;31.60
73137;DHT22;67767;45.636;11.756;2023-09-12T14:39:19;40.10;32.60
73137;DHT22;67767;45.636;11.756;2023-09-12T14:41:44;39.70;33.00
73137;DHT22;67767;45.636;11.756;2023-09-12T14:44:15;38.70;34.20
73137;DHT22;67767;45.636;11.756;2023-09-12T14:46:40;38.00;35.00
73137;DHT22;67767;45.636;11.756;2023-09-12T14:49:06;37.50;35.70
73137;DHT22;67767;45.636;11.756;2023-09-12T14:51:31;37.00;38.50
73137;DHT22;67767;45.636;11.756;2023-09-12T14:53:57;36.00;38.10
73137;DHT22;67767;45.636;11.756;2023-09-12T14:56:23;35.30;39.10
73137;DHT22;67767;45.636;11.756;2023-09-12T14:58:49;34.60;41.00
73137;DHT22;67767;45.636;11.756;2023-09-12T15:01:14;34.40;41.60
73137;DHT22;67767;45.636;11.756;2023-09-12T15:03:40;34.70;40.70
73137;DHT22;67767;45.636;11.756;2023-09-12T15:06:06;34.00;41.90
73137;DHT22;67767;45.636;11.756;2023-09-12T15:08:32;33.40;43.80
73137;DHT22;67767;45.636;11.756;2023-09-12T15:11:01;33.40;43.70
73137;DHT22;67767;45.636;11.756;2023-09-12T15:13:28;33.70;42.50
73137;DHT22;67767;45.636;11.756;2023-09-12T15:15:53;34.10;42.30
73137;DHT22;67767;45.636;11.756;2023-09-12T15:18:19;33.90;43.00
73137;DHT22;67767;45.636;11.756;2023-09-12T15:20:45;34.00;42.90
73137;DHT22;67767;45.636;11.756;2023-09-12T15:23:10;34.10;43.10
73137;DHT22;67767;45.636;11.756;2023-09-12T15:25:36;33.90;43.50